• Join FlightAware (Why Join?)
  • Login
  • US Flag 
12:16PM EDT


 

Airport Tracker/Info


-or-


 

Live Flight TrackerFlight Track Log ✈ KFS729 ✈ 20-May-2013 ✈ KYIP - KLRD

Flight Track Log - Related Links

Times and Time Zones

All times are in EDT time to prevent confusion due to time zone crossing. See the KFS729 flight status page for this flight to view local times or setup timezone preferences in your user account.

Time Position Orientation Groundspeed Altitude Reporting Facility
EDT Latitude Longitude Course Direction KTS MPH feet Rate Location/Type
11:42AM 42.2236 -83.5556 216° Southwest 155 178 1,700  Level Cleveland Center
11:43AM 42.1744 -83.6036 216° Southwest 238 274 3,100 1,440 Climbing Cleveland Center
11:44AM 42.1078 -83.6789 220° Southwest 238 274 5,100 2,280 Climbing Cleveland Center
11:46AM 41.9778 -83.7089 190° South 249 287 10,400 2,040 Climbing Cleveland Center
11:47AM 41.8875 -83.7350 192° South 276 318 11,300 1,560 Climbing Cleveland Center
11:48AM 41.7867 -83.7636 192° South 351 404 13,600 2,700 Climbing Cleveland Center
11:49AM 41.6794 -83.7944 192° South 376 433 16,800 2,580 Climbing Cleveland Center
11:50AM 41.5856 -83.8647 209° Southwest 381 438 18,800 1,920 Climbing Cleveland Center
11:51AM 41.4894 -83.9431 211° Southwest 392 451 20,700 1,800 Climbing Cleveland Center
11:52AM 41.3850 -84.0233 210° Southwest 420 483 22,500 1,620 Climbing Cleveland Center
11:53AM 41.2953 -84.0961 211° Southwest 421 484 24,000 1,500 Climbing Cleveland Center
11:53AM 41.2561 -84.1339 216° Southwest 437 503 24,700 1,560 Climbing Chicago Center
11:54AM 41.2092 -84.2875 248° West 448 516 26,300 1,380 Climbing Chicago Center
11:56AM 41.1708 -84.4497 253° West 458 527 27,600 1,080 Climbing Chicago Center
11:57AM 41.1281 -84.6119 251° West 462 532 28,600 1,080 Climbing Chicago Center
11:58AM 41.0756 -84.8156 251° West 481 554 29,900 1,380 Climbing Chicago Center
11:59AM 41.0308 -84.9850 251° West 486 559 31,500 1,500 Climbing Chicago Center
12:00PM 40.9856 -85.1483 250° West 477 549 33,100 1,260 Climbing Chicago Center
12:01PM 40.8992 -85.2733 228° Southwest 465 535 34,200 840 Climbing Chicago Center
12:02PM 40.7958 -85.3747 217° Southwest 463 533 34,900 600 Climbing Chicago Center
12:03PM 40.6917 -85.4803 218° Southwest 469 540 35,500 480 Climbing Chicago Center
12:04PM 40.5750 -85.6017 218° Southwest 477 549 36,000 240 Climbing Chicago Center
12:05PM 40.4667 -85.7122 218° Southwest 490 564 36,000  Level Chicago Center
12:06PM 40.3614 -85.8200 218° Southwest 484 557 36,000  Level Chicago Center
12:07PM 40.2575 -85.9250 218° Southwest 475 547 36,000  Level Chicago Center
12:08PM 40.1553 -86.0272 217° Southwest 467 537 36,000  Level Chicago Center
12:09PM 40.0317 -86.1525 218° Southwest 465 535 36,000  Level Indianapolis Center
12:10PM 39.9306 -86.2536 217° Southwest 464 534 36,000  Level Indianapolis Center
12:11PM 39.8108 -86.3714 217° Southwest 464 534 36,000  Level Indianapolis Center
12:12PM 39.7025 -86.4556 211° Southwest 469 540 36,000  Level Indianapolis Center
12:13PM 39.5919 -86.5372 210° Southwest 464 534 36,000  Level Indianapolis Center
12:14PM 39.4761 -86.6078 205° Southwest 465 535 36,000  Level Indianapolis Center
12:15PM 39.3528 -86.6556 197° South 465 535 36,000  Level Indianapolis Center
12:16PM 39.2033 -86.7131 197° South 469 540 36,000  Level Indianapolis Center
12:17PM 39.0928 -86.7553 197° South 469 540 36,000  Level Indianapolis Center
12:18PM 38.9725 -86.8167 202° Southwest 469 540 36,000  Level Indianapolis Center
12:19PM 38.8431 -86.9317 215° Southwest 471 542 36,000  Level Indianapolis Center
12:20PM 38.7328 -87.0236 213° Southwest 472 543 36,000  Level Indianapolis Center
12:21PM 38.6228 -87.1164 213° Southwest 475 547 36,000  Level Indianapolis Center
12:22PM 38.5133 -87.2089 213° Southwest 475 547 36,000  Level Indianapolis Center
12:23PM 38.4044 -87.3022 214° Southwest 478 550 36,000  Level Indianapolis Center
12:24PM 38.2942 -87.3933 213° Southwest 479 551 36,000  Level Indianapolis Center
12:25PM 38.1603 -87.5042 213° Southwest 480 552 36,000  Level Indianapolis Center
12:26PM 38.0483 -87.5964 213° Southwest 481 554 36,000  Level Indianapolis Center
12:28PM 37.9367 -87.6889 213° Southwest 479 551 36,000  Level Indianapolis Center
12:29PM 37.8239 -87.7806 213° Southwest 480 552 36,000  Level Indianapolis Center
12:30PM 37.7106 -87.8736 213° Southwest 477 549 36,000  Level Indianapolis Center
12:31PM 37.5981 -87.9669 213° Southwest 479 551 36,000  Level Indianapolis Center
12:32PM 37.4872 -88.0564 213° Southwest 472 543 36,000  Level Indianapolis Center
12:33PM 37.3764 -88.1458 213° Southwest 470 541 36,000  Level Indianapolis Center
12:33PM 37.2781 -88.2272 213° Southwest 474 545 36,000  Level Memphis Center
12:34PM 37.1692 -88.3186 214° Southwest 474 545 36,000  Level Memphis Center
12:35PM 37.0603 -88.4047 212° Southwest 474 545 36,000  Level Memphis Center
12:36PM 36.9533 -88.4931 213° Southwest 474 545 36,000  Level Memphis Center
12:37PM 36.8439 -88.5733 210° Southwest 474 545 36,000  Level Memphis Center
12:38PM 36.7408 -88.6558 213° Southwest 463 533 36,000  Level Memphis Center
12:39PM 36.6336 -88.7383 212° Southwest 457 526 36,000  Level Memphis Center
12:40PM 36.5264 -88.8231 212° Southwest 457 526 36,000  Level Memphis Center
12:41PM 36.4292 -88.8972 212° Southwest 457 526 36,000  Level Memphis Center
12:42PM 36.3239 -88.9764 211° Southwest 457 526 36,000  Level Memphis Center
12:43PM 36.2144 -89.0606 212° Southwest 457 526 36,000  Level Memphis Center
12:44PM 36.1069 -89.1494 214° Southwest 457 526 36,000  Level Memphis Center
12:45PM 35.9992 -89.2306 211° Southwest 457 526 36,000  Level Memphis Center
12:46PM 35.8936 -89.3142 213° Southwest 457 526 36,000  Level Memphis Center
12:47PM 35.7878 -89.3947 212° Southwest 451 519 36,000  Level Memphis Center
12:48PM 35.6675 -89.4856 212° Southwest 451 519 36,000  Level Memphis Center
12:49PM 35.5806 -89.5581 214° Southwest 440 506 36,000  Level Memphis Center
12:50PM 35.4725 -89.6406 212° Southwest 445 512 36,000  Level Memphis Center
12:51PM 35.3686 -89.7206 212° Southwest 451 519 36,000  Level Memphis Center
12:52PM 35.2606 -89.8028 212° Southwest 451 519 36,000  Level Memphis Center
12:53PM 35.1544 -89.8847 212° Southwest 451 519 36,000  Level Memphis Center
12:54PM 35.0483 -89.9742 215° Southwest 456 525 36,000  Level Memphis Center
12:55PM 34.9800 -90.1061 238° Southwest 456 525 36,000  Level Memphis Center
12:56PM 34.9281 -90.2481 246° West 456 525 36,000  Level Memphis Center
12:57PM 34.8758 -90.3900 246° West 462 532 36,000 660 Level Memphis Center
12:58PM 34.8217 -90.5444 247° West 462 532 37,400 960 Climbing Memphis Center
12:59PM 34.7711 -90.6833 246° West 457 526 38,000 180 Climbing Memphis Center
01:01PM 34.7195 -90.8238 246° West  Level FlightAware Approximate
01:01PM 34.6742 -90.9633 246° West 457 526 38,000  Level Memphis Center
01:02PM 34.6233 -91.1067 247° West 458 527 38,000  Level Memphis Center
01:03PM 34.5725 -91.2425 246° West 458 527 38,000  Level Memphis Center
01:04PM 34.5211 -91.3806 246° West 452 520 38,000  Level Memphis Center
01:05PM 34.4742 -91.5136 247° West 452 520 38,000  Level Memphis Center
01:06PM 34.4250 -91.6464 246° West 442 509 38,000  Level Memphis Center
01:07PM 34.3839 -91.7639 247° West 436 502 38,000  Level Memphis Center
01:08PM 34.3386 -91.8942 247° West 430 495 38,000  Level Memphis Center
01:09PM 34.2825 -92.0389 245° Southwest 430 495 38,000  Level Memphis Center
01:10PM 34.2347 -92.1686 246° West 430 495 38,000  Level Memphis Center
01:11PM 34.1869 -92.3031 247° West 435 501 38,000  Level Memphis Center
01:12PM 34.1367 -92.4350 245° Southwest 440 506 38,000  Level Memphis Center
01:13PM 34.0886 -92.5642 246° West 435 501 38,000  Level Memphis Center
01:15PM 34.0225 -92.7603 248° West 426 490 38,000  Level Fort Worth Center
01:16PM 33.9728 -92.8856 244° Southwest 420 483 38,000  Level Fort Worth Center
01:17PM 33.9231 -93.0133 245° Southwest 426 490 38,000  Level Fort Worth Center
01:18PM 33.8753 -93.1433 246° West 426 490 38,000  Level Fort Worth Center
01:19PM 33.8275 -93.2706 246° West 426 490 38,000  Level Fort Worth Center
01:20PM 33.7772 -93.3953 244° Southwest 426 490 38,000  Level Fort Worth Center
01:21PM 33.7292 -93.5225 246° West 426 490 38,000  Level Fort Worth Center
01:22PM 33.6808 -93.6494 245° Southwest 426 490 38,000  Level Fort Worth Center
01:23PM 33.6303 -93.7764 244° Southwest 426 490 38,000  Level Fort Worth Center
01:24PM 33.5861 -93.9053 248° West 426 490 38,000  Level Fort Worth Center
01:25PM 33.5333 -94.0369 244° Southwest 431 496 38,000  Level Fort Worth Center
01:26PM 33.4611 -94.1492 232° Southwest 431 496 38,000  Level Fort Worth Center
01:27PM 33.3717 -94.2444 222° Southwest 431 496 38,000  Level Fort Worth Center
01:28PM 33.2844 -94.3422 223° Southwest 431 496 38,000  Level Fort Worth Center
01:29PM 33.1992 -94.4394 224° Southwest 431 496 38,000  Level Fort Worth Center
01:30PM 33.1136 -94.5342 223° Southwest 431 496 38,000  Level Fort Worth Center
01:31PM 33.0281 -94.6333 224° Southwest 431 496 38,000  Level Fort Worth Center
01:32PM 32.9406 -94.7278 222° Southwest 431 496 38,000  Level Fort Worth Center
01:33PM 32.8547 -94.8267 224° Southwest 431 496 38,000  Level Fort Worth Center
01:34PM 32.7669 -94.9231 223° Southwest 431 496 38,000  Level Fort Worth Center
01:35PM 32.6811 -95.0192 223° Southwest 431 496 38,000  Level Fort Worth Center
01:36PM 32.5953 -95.1153 223° Southwest 431 496 38,000  Level Fort Worth Center
01:37PM 32.5114 -95.2133 225° Southwest 431 496 38,000  Level Fort Worth Center
01:38PM 32.4297 -95.3089 225° Southwest 426 490 38,000  Level Fort Worth Center
01:39PM 32.3414 -95.4044 222° Southwest 421 484 38,000  Level Fort Worth Center
01:40PM 32.2572 -95.4997 224° Southwest 426 490 38,000  Level Fort Worth Center
01:41PM 32.1669 -95.6069 225° Southwest 426 490 38,000  Level Fort Worth Center
01:42PM 32.0867 -95.6872 220° Southwest 420 483 38,000  Level Fort Worth Center
01:43PM 32.0003 -95.7842 224° Southwest 420 483 38,000  Level Fort Worth Center
01:44PM 31.9056 -95.8936 224° Southwest 420 483 38,000  Level Fort Worth Center
01:45PM 31.8272 -95.9731 221° Southwest 425 489 38,000  Level Fort Worth Center
01:46PM 31.7406 -96.0697 224° Southwest 420 483 38,000  Level Fort Worth Center
01:47PM 31.6478 -96.1736 224° Southwest 420 483 38,000  Level Fort Worth Center
01:48PM 31.5789 -96.2469 222° Southwest 429 494 38,000  Level Houston Center
01:49PM 31.4906 -96.3433 223° Southwest 428 493 38,000  Level Houston Center
01:50PM 31.4017 -96.4403 223° Southwest 432 497 38,000  Level Houston Center
01:51PM 31.3122 -96.5361 222° Southwest 432 497 38,000  Level Houston Center
01:52PM 31.2228 -96.6325 223° Southwest 433 498 38,000  Level Houston Center
01:53PM 31.1175 -96.7450 222° Southwest 434 499 38,000  Level Houston Center
01:54PM 31.0278 -96.8411 223° Southwest 432 497 38,000  Level Houston Center
01:55PM 30.9378 -96.9367 222° Southwest 433 498 38,000  Level Houston Center
01:56PM 30.8467 -97.0331 222° Southwest 432 497 38,000  Level Houston Center
01:57PM 30.7536 -97.1300 222° Southwest 439 505 38,000  Level Houston Center
01:58PM 30.6625 -97.2275 223° Southwest 438 504 38,000  Level Houston Center
01:59PM 30.5714 -97.3253 223° Southwest 438 504 38,000  Level Houston Center
02:00PM 30.4814 -97.4214 223° Southwest 435 501 38,000  Level Houston Center
02:01PM 30.3914 -97.5167 222° Southwest 434 499 38,000  Level Houston Center
02:02PM 30.3086 -97.6192 227° Southwest 430 495 38,000  Level Houston Center
02:03PM 30.2139 -97.7411 228° Southwest 432 497 38,000  Level Houston Center
02:04PM 30.1322 -97.8447 228° Southwest 433 498 38,000  Level Houston Center
02:05PM 30.0464 -97.9544 228° Southwest 425 489 38,000  Level Houston Center
02:07PM 29.9650 -98.0561 227° Southwest 430 495 38,000  Level Houston Center
02:08PM 29.8789 -98.1658 228° Southwest 428 493 38,000  Level Houston Center
02:09PM 29.7986 -98.2678 228° Southwest 430 495 38,000  Level Houston Center
02:10PM 29.7125 -98.3764 228° Southwest 429 494 38,000 -60 Level Houston Center
02:11PM 29.6444 -98.4592 227° Southwest 435 501 37,900 -60 Descending Houston Center
02:12PM 29.5072 -98.5306 204° Southwest 447 514 37,900  Level Houston Center
02:13PM 29.3872 -98.5842 201° Southwest 446 513 38,000  Climbing Houston Center
02:14PM 29.2653 -98.6442 203° Southwest 443 510 38,000  Level Houston Center
02:15PM 29.1519 -98.7003 203° Southwest 444 511 38,000 -1,620 Level Houston Center
02:16PM 29.0289 -98.7592 203° Southwest 444 511 34,700 -3,300 Descending Houston Center
02:17PM 28.9136 -98.8147 203° Southwest 448 516 31,200 -3,300 Descending Houston Center
02:18PM 28.7925 -98.8714 202° Southwest 436 502 27,900 -3,480 Descending Houston Center
02:19PM 28.6831 -98.9219 202° Southwest 425 489 24,100 -3,540 Descending Houston Center
02:20PM 28.5822 -98.9781 206° Southwest 421 484 20,600 -3,420 Descending Houston Center
02:21PM 28.4983 -99.0567 219° Southwest 395 455 17,000 -3,360 Descending Houston Center
02:22PM 28.4178 -99.1353 221° Southwest 383 441 13,700 -3,000 Descending Houston Center
02:23PM 28.3300 -99.2250 222° Southwest 358 412 10,900 -1,860 Descending Houston Center
02:24PM 28.2700 -99.2897 224° Southwest 313 360 9,900 -1,140 Descending Houston Center
02:25PM 28.2156 -99.3436 221° Southwest 275 316 8,600 -1,500 Descending Houston Center
02:26PM 28.1461 -99.3608 192° South 262 302 6,900 -1,560 Descending Houston Center
02:27PM 28.0761 -99.3758 191° South 258 297 5,400 -1,320 Descending Houston Center
02:28PM 28.0106 -99.3939 194° South 252 290 4,200 -1,200 Descending Houston Center
02:29PM 27.9372 -99.4142 194° South 239 275 2,900 -780 Descending Houston Center
02:30PM 27.8817 -99.4331 197° South 225 259 2,600 -180 Descending Houston Center
02:31PM 27.8319 -99.4483 195° South 207 238 2,600  Level Houston Center
02:32PM 27.7894 -99.4486 180° South 180 207 2,600 -120 Level Houston Center
02:33PM 27.7442 -99.4517 183° South 166 191 2,400  Descending Houston Center
02:34PM 27.6908 -99.4558 184° South 163 188 2,600 -120 Climbing Houston Center
02:35PM 27.6472 -99.4594 184° South 161 185 2,200 -540 Descending Houston Center
02:37PM 27.6100 -99.4600 181° South 149 171 1,500 -660 Descending Houston Center
02:38PM 27.5744 -99.4617 182° South 138 159 900 -600 Descending Houston Center